Terminal Aerodrome Forecast
Issued by NWS

Home | Current Version | Previous Version | Text Only | Print | Product List | Glossary On
Versions: 1 2 3 4 5 6 7 8 9 10 11 12 13 14 15 16 17 18 19 20 21 22 23 24 25 26 27 28 29 30 31 32 33 34 35 36 37 38 39 40 41 42 43 44 45 46 47 48 49 50
000
FTUS46 KPQR 050526
TAFONP
TAF
KONP 050526Z 0506/0606 34011KT 5SM -SHRA BKN015 OVC025
      TEMPO 0506/0509 BKN008 OVC015
     FM051500 22010KT P6SM -RA BKN025 OVC040
     FM052000 27010KT P6SM -SHRA SCT025 BKN035=

USA.gov is the U.S. government's official web portal to all federal, state and local government web resources and services.